Time;durP1;ratioP1;P1;durP2;ratioP2;P2;SDS_P1;SDS_P2;PMS_P1;PMS_P2;Temp;Humidity;BMP_temperature;BMP_pressure;BME280_temperature;BME280_humidity;BME280_pressure;Samples;Min_cycle;Max_cycle;Signal;HPM_P1;HPM_P2
2022/03/07 00:00:44;;;;;;;10.17;5.43;;;2.60;99.90;;;;;;4998729;28;35908;-76
2022/03/07 00:03:10;;;;;;;12.23;5.37;;;2.60;99.90;;;;;;5002990;28;38919;-76
2022/03/07 00:05:36;;;;;;;7.93;5.20;;;2.50;99.90;;;;;;4996829;28;39073;-76
2022/03/07 00:08:02;;;;;;;8.93;5.47;;;2.50;99.90;;;;;;4997480;28;38806;-75
2022/03/07 00:10:28;;;;;;;8.90;5.20;;;2.40;99.90;;;;;;5008153;28;36023;-76
2022/03/07 00:12:54;;;;;;;9.33;5.40;;;2.40;99.90;;;;;;4997525;28;38340;-76
2022/03/07 00:15:20;;;;;;;7.67;5.40;;;2.30;99.90;;;;;;4995739;28;37583;-75
2022/03/07 00:17:47;;;;;;;7.83;5.60;;;2.30;99.90;;;;;;5014441;28;37961;-76
2022/03/07 00:20:13;;;;;;;10.10;5.40;;;2.20;99.90;;;;;;4995134;28;38679;-75
2022/03/07 00:22:39;;;;;;;12.93;5.67;;;2.10;99.90;;;;;;4993428;28;39745;-76
2022/03/07 00:25:05;;;;;;;8.37;5.93;;;2.00;99.90;;;;;;4989115;28;38981;-75
2022/03/07 00:27:31;;;;;;;12.13;5.80;;;2.10;99.90;;;;;;5000821;28;39097;-76
2022/03/07 00:29:57;;;;;;;8.60;5.23;;;2.00;99.90;;;;;;5003942;28;38197;-75
2022/03/07 00:32:24;;;;;;;7.03;5.77;;;2.00;99.90;;;;;;5001650;28;38871;-75
2022/03/07 00:34:50;;;;;;;10.87;5.93;;;1.90;99.90;;;;;;5001339;28;39155;-75
2022/03/07 00:37:16;;;;;;;9.33;5.80;;;1.90;99.90;;;;;;5012699;28;39907;-75
2022/03/07 00:39:42;;;;;;;7.80;5.70;;;1.80;99.90;;;;;;4995385;28;37685;-76
2022/03/07 00:42:08;;;;;;;10.93;6.13;;;1.80;99.90;;;;;;4991062;28;39895;-76
2022/03/07 00:44:34;;;;;;;10.07;5.77;;;1.70;99.90;;;;;;4996620;28;38870;-76
2022/03/07 00:47:00;;;;;;;7.40;5.80;;;1.60;99.90;;;;;;4994613;28;38467;-76
2022/03/07 00:49:26;;;;;;;7.73;5.70;;;1.50;99.90;;;;;;4996733;28;37298;-75
2022/03/07 00:51:52;;;;;;;12.00;6.63;;;1.50;99.90;;;;;;5001905;28;40320;-76
2022/03/07 00:54:18;;;;;;;11.70;6.07;;;1.40;99.90;;;;;;5000430;28;39058;-76
2022/03/07 00:56:44;;;;;;;12.67;6.40;;;1.40;99.90;;;;;;5015239;28;40222;-75
2022/03/07 00:59:10;;;;;;;9.93;6.73;;;1.40;99.90;;;;;;5016128;28;38779;-75
2022/03/07 01:01:36;;;;;;;9.40;5.90;;;1.40;99.90;;;;;;4996802;28;38731;-76
2022/03/07 01:04:02;;;;;;;7.93;6.13;;;1.30;99.90;;;;;;4996913;28;38923;-75
2022/03/07 01:06:28;;;;;;;8.83;5.77;;;1.30;99.90;;;;;;5004150;28;38428;-76
2022/03/07 01:08:54;;;;;;;9.63;6.53;;;1.30;99.90;;;;;;4997072;28;37078;-76
2022/03/07 01:11:20;;;;;;;10.77;6.53;;;1.20;99.90;;;;;;4998754;28;38639;-76
2022/03/07 01:13:46;;;;;;;12.67;7.67;;;1.30;99.90;;;;;;5004741;28;37868;-75
2022/03/07 01:16:12;;;;;;;10.00;6.43;;;1.20;99.90;;;;;;5002677;28;40044;-75
2022/03/07 01:18:38;;;;;;;9.27;6.03;;;1.20;99.90;;;;;;4999540;28;36894;-75
2022/03/07 01:21:05;;;;;;;8.60;5.83;;;1.10;99.90;;;;;;4997676;28;38663;-75
2022/03/07 01:23:31;;;;;;;9.83;6.23;;;1.10;99.90;;;;;;4996733;28;38894;-75
2022/03/07 01:25:57;;;;;;;9.50;6.30;;;1.10;99.90;;;;;;4996943;28;39141;-76
2022/03/07 01:28:23;;;;;;;9.10;6.10;;;1.10;99.90;;;;;;4994700;28;37799;-76
2022/03/07 01:30:49;;;;;;;9.90;6.70;;;1.10;99.90;;;;;;4996377;28;41244;-75
2022/03/07 01:33:15;;;;;;;11.97;7.27;;;1.20;99.90;;;;;;5004937;28;39451;-75
2022/03/07 01:35:42;;;;;;;10.23;6.30;;;1.20;99.90;;;;;;5013117;28;37352;-76
2022/03/07 01:38:08;;;;;;;8.70;6.27;;;1.10;99.90;;;;;;4997543;28;35805;-75
2022/03/07 01:40:34;;;;;;;9.27;6.23;;;1.00;99.90;;;;;;5009120;28;38751;-75
2022/03/07 01:43:00;;;;;;;9.77;6.53;;;1.00;99.90;;;;;;4991338;28;40446;-75
2022/03/07 01:45:26;;;;;;;10.03;6.53;;;0.90;99.90;;;;;;4994727;28;35821;-75
2022/03/07 01:47:52;;;;;;;14.17;7.03;;;0.80;99.90;;;;;;5006321;28;37572;-75
2022/03/07 01:50:20;;;;;;;10.63;7.10;;;0.80;99.90;;;;;;5003592;28;40353;-76
2022/03/07 01:52:50;;;;;;;9.50;6.17;;;0.70;99.90;;;;;;5007678;28;39034;-75
2022/03/07 01:55:16;;;;;;;11.43;6.27;;;0.60;99.90;;;;;;4994218;28;39596;-75
2022/03/07 01:57:45;;;;;;;8.47;6.60;;;0.50;99.90;;;;;;4992190;28;37105;-75
2022/03/07 02:00:14;;;;;;;8.70;6.70;;;0.50;99.90;;;;;;4994268;28;38847;-77
2022/03/07 02:02:41;;;;;;;11.07;6.77;;;0.60;99.90;;;;;;5004876;28;39001;-77
2022/03/07 02:05:10;;;;;;;9.73;6.47;;;0.50;99.90;;;;;;5018044;28;39906;-77
2022/03/07 02:07:39;;;;;;;11.40;7.00;;;0.40;99.90;;;;;;4999526;28;37889;-76
2022/03/07 02:10:07;;;;;;;12.10;7.33;;;0.40;99.90;;;;;;4995833;28;38886;-76
2022/03/07 02:12:33;;;;;;;12.63;7.30;;;0.30;99.90;;;;;;4992298;28;39115;-77
2022/03/07 02:15:00;;;;;;;10.73;7.73;;;0.30;99.90;;;;;;5000712;28;37129;-77
2022/03/07 02:17:26;;;;;;;9.20;7.27;;;0.30;99.90;;;;;;4997526;28;37302;-77
2022/03/07 02:19:52;;;;;;;12.20;7.60;;;0.40;99.90;;;;;;4997734;28;39540;-75
2022/03/07 02:22:18;;;;;;;13.57;7.17;;;0.40;99.90;;;;;;4999935;28;38615;-77
2022/03/07 02:24:44;;;;;;;13.47;7.87;;;0.40;99.90;;;;;;5011216;28;39763;-76
2022/03/07 02:27:12;;;;;;;15.13;7.87;;;0.30;99.90;;;;;;5015013;28;37843;-77
2022/03/07 02:29:38;;;;;;;11.00;6.80;;;0.30;99.90;;;;;;5005984;28;40432;-76
2022/03/07 02:32:06;;;;;;;10.40;7.03;;;0.30;99.90;;;;;;5000851;28;38084;-77
2022/03/07 02:34:32;;;;;;;12.73;8.00;;;0.20;99.90;;;;;;5003227;28;37205;-77
2022/03/07 02:36:58;;;;;;;10.73;7.57;;;0.20;99.90;;;;;;4998184;28;37417;-77
2022/03/07 02:39:24;;;;;;;12.67;7.37;;;0.10;99.90;;;;;;5002708;28;39215;-77
2022/03/07 02:41:51;;;;;;;8.93;6.93;;;0.00;99.90;;;;;;4997057;28;39594;-77
2022/03/07 02:44:17;;;;;;;12.80;6.83;;;-0.10;99.90;;;;;;5000989;28;39970;-77
2022/03/07 02:46:43;;;;;;;12.60;8.07;;;0.00;99.90;;;;;;4999105;28;37324;-77
2022/03/07 02:49:09;;;;;;;12.43;8.00;;;0.00;99.90;;;;;;5010253;28;38776;-77
2022/03/07 02:51:36;;;;;;;10.90;7.37;;;0.10;99.90;;;;;;4999937;28;39195;-77
2022/03/07 02:54:03;;;;;;;12.33;7.63;;;0.10;99.90;;;;;;4997056;28;39322;-76
2022/03/07 02:56:29;;;;;;;11.00;7.50;;;0.10;99.90;;;;;;5003228;28;37013;-77
2022/03/07 02:58:55;;;;;;;13.10;8.03;;;0.10;99.90;;;;;;5015787;28;39480;-77
2022/03/07 03:01:21;;;;;;;9.87;7.70;;;0.10;99.90;;;;;;4995222;28;38424;-77
2022/03/07 03:03:47;;;;;;;13.77;7.43;;;0.10;99.90;;;;;;5003121;28;38994;-77
2022/03/07 03:06:13;;;;;;;14.40;7.37;;;0.00;99.90;;;;;;5002862;28;37315;-77
2022/03/07 03:08:39;;;;;;;12.43;7.97;;;-0.10;99.90;;;;;;5004212;28;39545;-77
2022/03/07 03:11:06;;;;;;;18.37;8.13;;;-0.10;99.90;;;;;;5013891;28;39404;-77
2022/03/07 03:13:32;;;;;;;13.30;8.40;;;-0.10;99.90;;;;;;4993521;28;41711;-77
2022/03/07 03:15:58;;;;;;;9.70;7.53;;;-0.20;99.90;;;;;;5001800;28;37228;-77
2022/03/07 03:18:24;;;;;;;12.53;7.93;;;-0.20;99.90;;;;;;4999676;28;39904;-77
2022/03/07 03:20:52;;;;;;;10.90;8.13;;;-0.30;99.90;;;;;;5003105;28;39343;-77
2022/03/07 03:23:20;;;;;;;10.77;7.67;;;-0.30;99.90;;;;;;5002691;28;39551;-77
2022/03/07 03:25:46;;;;;;;15.90;8.20;;;-0.40;99.90;;;;;;4996281;28;37366;-77
2022/03/07 03:28:13;;;;;;;12.03;8.03;;;-0.50;99.90;;;;;;4994767;28;38688;-77
2022/03/07 03:30:39;;;;;;;11.90;7.30;;;-0.50;99.90;;;;;;4997299;28;39131;-77
2022/03/07 03:33:05;;;;;;;13.03;9.00;;;-0.60;99.90;;;;;;5007418;28;39000;-77
2022/03/07 03:35:35;;;;;;;12.30;8.33;;;-0.60;99.90;;;;;;4996129;28;37869;-77
2022/03/07 03:38:06;;;;;;;13.50;9.30;;;-0.70;99.90;;;;;;5001757;28;38898;-76
2022/03/07 03:40:32;;;;;;;14.10;8.70;;;-0.80;99.90;;;;;;5001074;28;38772;-77
2022/03/07 03:42:58;;;;;;;12.63;8.37;;;-0.80;99.90;;;;;;4997910;28;37515;-77
2022/03/07 03:45:25;;;;;;;16.07;9.00;;;-0.90;99.90;;;;;;5003174;28;37242;-78
2022/03/07 03:47:51;;;;;;;12.87;8.70;;;-1.00;99.90;;;;;;5001101;28;39226;-76
2022/03/07 03:50:17;;;;;;;14.10;8.57;;;-1.00;99.90;;;;;;5011021;28;40341;-76
2022/03/07 03:52:44;;;;;;;11.90;9.00;;;-1.00;99.90;;;;;;4999061;28;38288;-77
2022/03/07 03:55:11;;;;;;;17.43;10.17;;;-0.90;99.90;;;;;;4998328;28;37030;-77
2022/03/07 03:57:39;;;;;;;14.23;8.90;;;-0.90;99.90;;;;;;4995195;28;39736;-76
2022/03/07 04:00:07;;;;;;;13.00;9.00;;;-0.90;99.90;;;;;;5000966;28;38593;-76
2022/03/07 04:02:33;;;;;;;12.67;9.40;;;-0.90;99.90;;;;;;4999223;28;39269;-77
2022/03/07 04:04:59;;;;;;;15.67;9.60;;;-0.90;99.90;;;;;;5001405;28;37124;-77
2022/03/07 04:07:25;;;;;;;16.33;10.37;;;-0.90;99.90;;;;;;4993771;28;37361;-76
2022/03/07 04:09:51;;;;;;;15.90;10.23;;;-0.90;99.90;;;;;;5001877;28;40082;-77
2022/03/07 04:12:18;;;;;;;18.83;11.17;;;-0.90;99.90;;;;;;5009477;28;38198;-76
2022/03/07 04:14:44;;;;;;;16.67;10.57;;;-1.00;99.90;;;;;;5017571;28;36451;-76
2022/03/07 04:17:10;;;;;;;17.80;10.53;;;-1.10;99.90;;;;;;4995441;28;39632;-76
2022/03/07 04:19:36;;;;;;;17.30;9.93;;;-1.10;99.90;;;;;;5010231;28;38493;-77
2022/03/07 04:22:03;;;;;;;14.03;10.13;;;-1.10;99.90;;;;;;5000031;28;39035;-76
2022/03/07 04:24:30;;;;;;;16.07;10.17;;;-1.10;99.90;;;;;;5002832;28;37571;-77
2022/03/07 04:26:57;;;;;;;13.77;10.33;;;-1.10;99.90;;;;;;4991306;28;39811;-77
2022/03/07 04:29:23;;;;;;;14.70;10.57;;;-1.10;99.90;;;;;;5003481;28;39379;-77
2022/03/07 04:31:50;;;;;;;14.83;11.10;;;-1.20;99.90;;;;;;5000312;28;38126;-76
2022/03/07 04:34:16;;;;;;;17.03;11.07;;;-1.20;99.90;;;;;;5000487;28;37784;-76
2022/03/07 04:36:42;;;;;;;16.67;11.40;;;-1.20;99.90;;;;;;5019624;28;39137;-77
2022/03/07 04:39:09;;;;;;;15.27;9.83;;;-1.30;99.90;;;;;;4996822;28;38751;-76
2022/03/07 04:41:36;;;;;;;16.10;10.90;;;-1.30;99.90;;;;;;4999589;28;39375;-77
2022/03/07 04:44:03;;;;;;;19.40;11.47;;;-1.30;99.90;;;;;;5016613;28;34996;-76
2022/03/07 04:46:29;;;;;;;17.47;11.43;;;-1.40;99.90;;;;;;5001158;28;39060;-77
2022/03/07 04:48:56;;;;;;;19.03;12.10;;;-1.50;99.90;;;;;;5004672;28;39055;-77
2022/03/07 04:51:22;;;;;;;16.93;12.03;;;-1.60;99.90;;;;;;5001698;28;39110;-77
2022/03/07 04:53:48;;;;;;;20.40;12.43;;;-1.60;99.90;;;;;;5022916;28;38432;-77
2022/03/07 04:56:15;;;;;;;15.40;11.33;;;-1.60;99.90;;;;;;5002311;28;38906;-77
2022/03/07 04:58:41;;;;;;;18.47;12.60;;;-1.70;99.90;;;;;;5002908;28;39021;-77
2022/03/07 05:01:07;;;;;;;22.60;12.63;;;-1.80;99.90;;;;;;5023212;28;37356;-76
2022/03/07 05:03:33;;;;;;;16.23;10.90;;;-1.70;99.90;;;;;;5007237;28;37402;-76
2022/03/07 05:05:59;;;;;;;16.87;10.50;;;-1.80;99.90;;;;;;5000921;28;38370;-77
2022/03/07 05:08:26;;;;;;;15.33;11.17;;;-1.70;99.90;;;;;;5000266;28;38136;-76
2022/03/07 05:10:52;;;;;;;16.23;11.57;;;-1.80;99.90;;;;;;4996697;28;38981;-77
2022/03/07 05:13:18;;;;;;;18.93;13.43;;;-1.80;99.90;;;;;;5009855;28;36200;-76
2022/03/07 05:15:44;;;;;;;21.30;12.77;;;-1.80;99.90;;;;;;5006564;28;39153;-76
2022/03/07 05:18:10;;;;;;;21.00;12.77;;;-1.80;99.90;;;;;;5000054;28;39754;-76
2022/03/07 05:20:36;;;;;;;15.60;11.33;;;-1.90;99.90;;;;;;5001337;28;40025;-76
2022/03/07 05:23:02;;;;;;;18.97;11.17;;;-1.90;99.90;;;;;;5016324;28;38976;-76
2022/03/07 05:25:28;;;;;;;16.40;11.13;;;-1.90;99.90;;;;;;5011371;28;38782;-77
2022/03/07 05:27:54;;;;;;;16.07;11.70;;;-2.00;99.90;;;;;;4999484;28;39744;-76
2022/03/07 05:30:23;;;;;;;14.97;11.17;;;-2.00;99.90;;;;;;5000847;28;38480;-77
2022/03/07 05:32:53;;;;;;;21.67;11.50;;;-2.00;99.90;;;;;;5012295;28;37750;-77
2022/03/07 05:35:22;;;;;;;16.37;11.90;;;-2.10;99.90;;;;;;5000330;28;40492;-76
2022/03/07 05:37:48;;;;;;;19.20;11.43;;;-2.00;99.90;;;;;;5010106;28;41008;-76
2022/03/07 05:40:16;;;;;;;16.30;11.83;;;-2.00;99.90;;;;;;4997543;28;38221;-77
2022/03/07 05:42:42;;;;;;;19.30;12.63;;;-2.00;99.90;;;;;;4999603;28;38618;-76
2022/03/07 05:45:11;;;;;;;18.17;13.17;;;-2.00;99.90;;;;;;5012447;28;40022;-76
2022/03/07 05:47:38;;;;;;;18.00;12.87;;;-2.00;99.90;;;;;;4990724;28;38902;-76
2022/03/07 05:50:05;;;;;;;21.07;12.93;;;-1.90;99.90;;;;;;5006983;28;38837;-76
2022/03/07 05:52:32;;;;;;;24.60;14.23;;;-1.80;99.90;;;;;;5012782;28;37592;-76
2022/03/07 05:54:58;;;;;;;23.40;14.23;;;-1.70;99.90;;;;;;5006777;28;39660;-77
2022/03/07 05:57:24;;;;;;;21.90;15.17;;;-1.50;99.90;;;;;;4994671;28;39585;-76
2022/03/07 05:59:50;;;;;;;22.67;14.63;;;-1.40;99.90;;;;;;5008193;28;40514;-77
2022/03/07 06:02:16;;;;;;;23.83;13.27;;;-1.40;99.90;;;;;;4995246;28;38537;-77
2022/03/07 06:04:42;;;;;;;22.43;15.57;;;-1.30;99.90;;;;;;4999001;28;38854;-77
2022/03/07 06:07:08;;;;;;;21.87;13.33;;;-1.30;99.90;;;;;;5000682;28;40668;-76
2022/03/07 06:09:34;;;;;;;23.00;13.67;;;-1.30;99.90;;;;;;4992359;28;40450;-76
2022/03/07 06:12:00;;;;;;;21.80;14.30;;;-1.20;99.90;;;;;;5010546;28;38542;-77
2022/03/07 06:14:26;;;;;;;19.97;14.13;;;-1.20;99.90;;;;;;4992101;28;49935;-76
2022/03/07 06:16:53;;;;;;;20.87;13.93;;;-1.20;99.90;;;;;;5012186;28;38940;-76
2022/03/07 06:19:19;;;;;;;19.63;14.03;;;-1.00;99.90;;;;;;4997791;28;39060;-76
2022/03/07 06:21:45;;;;;;;18.90;13.43;;;-0.90;99.90;;;;;;5001985;28;37430;-77
2022/03/07 06:24:11;;;;;;;21.10;14.17;;;-0.80;99.90;;;;;;5021422;28;40188;-77
2022/03/07 06:26:37;;;;;;;20.60;14.80;;;-0.80;99.90;;;;;;5004758;28;38924;-78
2022/03/07 06:29:05;;;;;;;22.10;13.97;;;-0.80;99.90;;;;;;4997561;28;39655;-79
2022/03/07 06:31:32;;;;;;;23.83;14.83;;;-0.70;99.90;;;;;;4996421;28;49743;-77
2022/03/07 06:33:58;;;;;;;23.00;14.47;;;-0.70;99.90;;;;;;5006190;28;39084;-76
2022/03/07 06:36:25;;;;;;;22.50;14.43;;;-0.60;99.90;;;;;;5013600;28;39106;-76
2022/03/07 06:38:51;;;;;;;18.93;13.93;;;-0.60;99.90;;;;;;5022778;28;39000;-77
2022/03/07 06:41:17;;;;;;;22.03;14.40;;;-0.60;99.90;;;;;;5002518;28;37514;-77
2022/03/07 06:43:43;;;;;;;21.87;14.77;;;-0.60;99.90;;;;;;4994107;28;39029;-77
2022/03/07 06:46:10;;;;;;;26.97;14.63;;;-0.50;99.90;;;;;;5000151;28;37856;-76
2022/03/07 06:48:36;;;;;;;24.00;15.10;;;-0.50;99.90;;;;;;5001395;28;37425;-77
2022/03/07 06:51:02;;;;;;;27.40;16.03;;;-0.40;99.90;;;;;;5001208;28;40085;-76
2022/03/07 06:53:28;;;;;;;21.40;15.23;;;-0.40;99.90;;;;;;5012740;28;39143;-76
2022/03/07 06:55:54;;;;;;;23.77;15.67;;;-0.40;99.90;;;;;;4990431;28;39090;-77
2022/03/07 06:58:21;;;;;;;23.17;15.63;;;-0.30;99.90;;;;;;4985897;28;39891;-77
2022/03/07 07:00:48;;;;;;;28.13;16.43;;;-0.30;99.90;;;;;;4991429;28;37233;-76
2022/03/07 07:03:14;;;;;;;28.97;16.90;;;-0.30;99.90;;;;;;5007828;28;37518;-76
2022/03/07 07:05:40;;;;;;;28.70;16.77;;;-0.20;99.90;;;;;;4980152;28;39706;-76
2022/03/07 07:08:06;;;;;;;27.53;16.30;;;-0.20;99.90;;;;;;4984073;28;39460;-76
2022/03/07 07:10:32;;;;;;;21.57;15.90;;;-0.10;99.90;;;;;;4985447;28;43484;-76
2022/03/07 07:12:59;;;;;;;22.90;16.60;;;0.00;99.90;;;;;;4986736;28;39294;-76
2022/03/07 07:15:25;;;;;;;27.60;15.57;;;0.10;99.90;;;;;;4991163;28;38739;-76
2022/03/07 07:17:51;;;;;;;37.60;19.50;;;0.10;99.90;;;;;;4994132;28;39549;-76
2022/03/07 07:20:17;;;;;;;24.37;17.17;;;0.10;99.90;;;;;;4996661;28;37704;-76
2022/03/07 07:22:43;;;;;;;28.00;17.03;;;0.20;99.90;;;;;;5021944;28;38822;-76
2022/03/07 07:25:10;;;;;;;25.00;16.30;;;0.30;99.90;;;;;;5005698;28;39640;-78
2022/03/07 07:27:37;;;;;;;26.27;16.67;;;0.20;99.90;;;;;;5003757;28;38945;-76
2022/03/07 07:30:07;;;;;;;29.63;15.60;;;0.30;99.90;;;;;;5006204;28;38537;-76
2022/03/07 07:32:33;;;;;;;25.70;16.50;;;0.30;99.90;;;;;;5001630;28;40815;-76
2022/03/07 07:35:00;;;;;;;26.70;16.23;;;0.30;99.90;;;;;;4998717;28;39809;-76
2022/03/07 07:37:26;;;;;;;23.23;14.67;;;0.40;99.90;;;;;;4999790;28;39570;-77
2022/03/07 07:39:52;;;;;;;22.77;16.03;;;0.40;99.90;;;;;;5003925;28;37990;-76
2022/03/07 07:42:18;;;;;;;26.33;16.63;;;0.40;99.90;;;;;;5006700;28;39607;-76
2022/03/07 07:44:44;;;;;;;20.77;14.17;;;0.50;99.90;;;;;;5010295;28;39003;-76
2022/03/07 07:47:10;;;;;;;26.17;16.07;;;0.70;99.90;;;;;;5015173;28;39850;-76
2022/03/07 07:49:37;;;;;;;23.20;15.10;;;0.80;99.90;;;;;;5002748;28;38630;-76
2022/03/07 07:52:04;;;;;;;20.23;15.10;;;0.80;99.90;;;;;;5018676;28;39912;-75
2022/03/07 07:54:31;;;;;;;20.63;14.77;;;0.90;99.90;;;;;;5001888;28;39851;-76
2022/03/07 07:56:58;;;;;;;19.87;14.47;;;1.00;99.90;;;;;;5020025;28;37779;-76
2022/03/07 07:59:24;;;;;;;22.93;15.00;;;1.00;99.90;;;;;;5001373;28;37918;-76
2022/03/07 08:01:50;;;;;;;24.00;14.20;;;1.00;99.90;;;;;;5006751;28;39885;-75
2022/03/07 08:04:16;;;;;;;17.73;13.07;;;1.20;99.90;;;;;;5004429;28;39515;-77
2022/03/07 08:06:42;;;;;;;20.70;14.30;;;1.30;99.90;;;;;;5003971;28;38511;-77
2022/03/07 08:09:08;;;;;;;19.53;13.50;;;1.40;99.90;;;;;;5005243;28;38324;-76
2022/03/07 08:11:34;;;;;;;18.40;12.50;;;1.50;99.90;;;;;;5006934;28;38945;-76
2022/03/07 08:14:00;;;;;;;20.27;12.70;;;1.60;99.90;;;;;;5007549;28;39344;-77
2022/03/07 08:16:26;;;;;;;20.40;12.90;;;1.60;99.90;;;;;;5004707;28;39120;-76
2022/03/07 08:18:52;;;;;;;18.10;11.67;;;1.70;99.90;;;;;;5002759;28;37414;-74
2022/03/07 08:21:25;;;;;;;19.27;12.93;;;1.70;99.90;;;;;;5007842;28;37362;-74
2022/03/07 08:23:54;;;;;;;14.82;9.73;;;1.80;99.90;;;;;;5016058;28;38605;-74
2022/03/07 08:26:22;;;;;;;18.10;12.37;;;1.80;99.90;;;;;;5001081;28;38682;-75
2022/03/07 08:28:48;;;;;;;15.80;11.43;;;1.90;99.90;;;;;;5005676;28;37884;-75
2022/03/07 08:31:14;;;;;;;19.30;11.47;;;2.00;99.90;;;;;;5006291;28;38829;-74
2022/03/07 08:33:41;;;;;;;16.20;11.07;;;2.00;99.90;;;;;;4999130;28;39059;-74
2022/03/07 08:36:07;;;;;;;17.07;10.70;;;2.10;99.90;;;;;;5008265;28;37605;-74
2022/03/07 08:38:34;;;;;;;13.97;10.70;;;2.10;99.90;;;;;;4996933;28;37688;-75
2022/03/07 08:41:01;;;;;;;16.17;10.60;;;2.20;99.90;;;;;;5002887;28;39186;-75
2022/03/07 08:43:27;;;;;;;15.03;10.50;;;2.30;99.90;;;;;;5019321;28;46913;-74
2022/03/07 08:45:53;;;;;;;15.13;10.50;;;2.40;99.90;;;;;;5003458;28;38413;-74
2022/03/07 08:48:19;;;;;;;15.17;11.10;;;2.40;99.90;;;;;;5007629;28;36320;-75
2022/03/07 08:50:48;;;;;;;16.03;10.43;;;2.50;99.90;;;;;;5012807;28;40142;-75
2022/03/07 08:53:17;;;;;;;14.30;9.90;;;2.60;99.90;;;;;;5008192;28;39126;-75
2022/03/07 08:55:44;;;;;;;13.57;9.40;;;2.50;99.90;;;;;;5003826;28;38595;-74
2022/03/07 08:58:11;;;;;;;12.87;9.87;;;2.70;99.90;;;;;;4993672;28;37276;-75
2022/03/07 09:00:37;;;;;;;12.87;9.90;;;2.70;99.90;;;;;;5016130;28;37716;-74
2022/03/07 09:03:06;;;;;;;10.63;9.03;;;2.80;99.90;;;;;;5002584;28;38216;-74
2022/03/07 09:05:33;;;;;;;14.17;9.03;;;2.90;99.90;;;;;;5004683;28;40450;-75
2022/03/07 09:07:59;;;;;;;16.40;8.63;;;3.00;99.90;;;;;;5001419;28;38657;-75
2022/03/07 09:10:25;;;;;;;10.03;8.47;;;3.10;99.90;;;;;;5003486;28;39617;-74
2022/03/07 09:12:54;;;;;;;11.73;8.37;;;3.10;99.90;;;;;;5003938;28;38916;-74
2022/03/07 09:15:20;;;;;;;13.40;8.20;;;3.30;99.90;;;;;;4999614;28;39317;-75
2022/03/07 09:17:46;;;;;;;11.67;8.10;;;3.30;99.90;;;;;;5002778;28;37332;-74
2022/03/07 09:20:13;;;;;;;11.57;7.57;;;3.40;99.90;;;;;;5021323;28;39153;-74
2022/03/07 09:22:39;;;;;;;11.13;7.90;;;3.40;99.90;;;;;;5007463;28;39966;-74
2022/03/07 09:25:06;;;;;;;12.00;8.07;;;3.50;99.90;;;;;;4998351;28;40167;-76
2022/03/07 09:27:33;;;;;;;15.73;6.80;;;3.50;99.90;;;;;;5005721;28;38068;-75
2022/03/07 09:29:59;;;;;;;9.23;6.57;;;3.60;99.90;;;;;;5008873;28;41881;-75
2022/03/07 09:32:25;;;;;;;8.90;6.70;;;3.70;99.90;;;;;;5017540;28;39976;-75
2022/03/07 09:34:51;;;;;;;10.77;6.97;;;3.70;99.90;;;;;;5004229;28;40010;-75
2022/03/07 09:37:17;;;;;;;16.10;6.50;;;3.70;99.90;;;;;;5007333;28;36893;-74
2022/03/07 09:39:44;;;;;;;8.90;7.00;;;3.80;99.90;;;;;;5006049;28;39237;-75
2022/03/07 09:42:10;;;;;;;9.37;6.57;;;4.00;99.90;;;;;;5002086;28;39269;-74
2022/03/07 09:44:36;;;;;;;7.40;6.00;;;4.00;99.90;;;;;;5000971;28;38403;-75
2022/03/07 09:47:04;;;;;;;7.53;6.00;;;4.00;99.90;;;;;;4998289;28;36269;-75
2022/03/07 09:49:31;;;;;;;8.83;5.80;;;4.10;99.90;;;;;;5006637;28;38725;-75
2022/03/07 09:51:58;;;;;;;9.67;6.37;;;4.20;99.90;;;;;;5014167;28;39174;-75
2022/03/07 09:54:25;;;;;;;7.87;6.07;;;4.20;99.90;;;;;;4999054;28;37442;-75
2022/03/07 09:56:52;;;;;;;10.93;6.80;;;4.20;99.90;;;;;;5008562;28;37409;-75
2022/03/07 09:59:19;;;;;;;8.23;5.80;;;4.40;99.90;;;;;;5003760;28;39888;-75
2022/03/07 10:01:56;;;;;;;9.20;5.53;;;4.50;99.90;;;;;;5023792;28;39160;-75
2022/03/07 10:04:23;;;;;;;10.07;6.03;;;4.60;99.90;;;;;;5004468;28;38018;-75
2022/03/07 10:06:49;;;;;;;7.83;5.73;;;4.70;99.90;;;;;;5017424;28;38195;-75
2022/03/07 10:09:23;;;;;;;10.87;5.57;;;4.90;99.90;;;;;;5015246;28;39498;-75
2022/03/07 10:11:51;;;;;;;9.97;5.60;;;4.90;99.90;;;;;;4998362;28;39279;-75
2022/03/07 10:14:17;;;;;;;7.70;5.37;;;5.00;99.90;;;;;;5000894;28;37571;-75
2022/03/07 10:16:44;;;;;;;9.30;5.90;;;5.20;99.90;;;;;;4994836;28;37502;-77
2022/03/07 10:19:13;;;;;;;8.27;5.53;;;5.20;99.90;;;;;;4996181;28;40987;-75
2022/03/07 10:21:48;;;;;;;6.97;4.70;;;5.20;99.90;;;;;;5001465;28;38948;-76
2022/03/07 10:24:15;;;;;;;8.27;5.30;;;5.30;99.90;;;;;;4999951;28;38866;-75
2022/03/07 10:26:42;;;;;;;8.00;5.07;;;5.40;99.90;;;;;;5001045;28;37153;-76
2022/03/07 10:29:08;;;;;;;7.70;5.40;;;5.40;99.90;;;;;;4999619;28;39865;-76
2022/03/07 10:31:35;;;;;;;6.30;5.47;;;5.40;99.90;;;;;;4997520;28;38782;-75
2022/03/07 10:34:07;;;;;;;9.07;5.47;;;5.40;99.90;;;;;;5002678;28;38954;-77
2022/03/07 10:36:39;;;;;;;7.70;5.60;;;5.50;99.90;;;;;;4997990;28;47174;-76
2022/03/07 10:39:07;;;;;;;7.37;5.40;;;5.50;99.90;;;;;;5016122;28;40632;-75
2022/03/07 10:41:45;;;;;;;6.87;5.53;;;5.60;99.90;;;;;;4998344;28;40387;-77
2022/03/07 10:44:32;;;;;;;6.57;5.33;;;5.80;99.90;;;;;;5001403;28;39376;-77
2022/03/07 10:47:15;;;;;;;7.20;6.00;;;6.00;99.90;;;;;;4998762;28;38844;-78
2022/03/07 10:49:53;;;;;;;7.57;5.67;;;6.00;99.90;;;;;;4999610;28;48756;-78
2022/03/07 10:52:20;;;;;;;6.97;5.93;;;6.10;99.90;;;;;;5007007;28;39033;-78
2022/03/07 10:54:49;;;;;;;8.03;5.90;;;6.10;99.90;;;;;;5015046;28;38464;-78
2022/03/07 10:57:17;;;;;;;10.00;5.60;;;6.00;99.90;;;;;;5023312;28;37465;-78
2022/03/07 10:59:44;;;;;;;7.40;5.77;;;6.00;99.90;;;;;;5006574;28;41032;-78
2022/03/07 11:02:17;;;;;;;5.83;4.63;;;6.30;99.90;;;;;;5005929;28;38964;-79
2022/03/07 11:04:46;;;;;;;7.88;5.78;;;6.30;99.90;;;;;;5011079;28;38728;-78
2022/03/07 11:07:12;;;;;;;8.17;4.70;;;6.30;99.90;;;;;;5004813;28;37047;-78
2022/03/07 11:09:40;;;;;;;6.07;4.70;;;6.40;99.90;;;;;;5005548;28;37747;-78
2022/03/07 11:12:12;;;;;;;7.37;4.87;;;6.30;99.90;;;;;;5010302;28;39731;-77
2022/03/07 11:14:42;;;;;;;6.53;4.90;;;6.40;99.90;;;;;;5006947;28;38509;-78
2022/03/07 11:17:18;;;;;;;6.47;4.90;;;6.40;99.90;;;;;;5007121;28;37282;-77
2022/03/07 11:19:46;;;;;;;8.40;5.07;;;6.50;99.90;;;;;;5018126;28;39105;-78
2022/03/07 11:22:15;;;;;;;9.10;4.60;;;6.60;99.90;;;;;;5022489;28;38968;-78
2022/03/07 11:24:42;;;;;;;6.07;4.03;;;6.50;99.90;;;;;;4999911;28;38361;-78
2022/03/07 11:27:09;;;;;;;4.97;4.10;;;6.50;99.90;;;;;;5008976;28;37182;-77
2022/03/07 11:29:40;;;;;;;7.30;4.10;;;6.60;99.90;;;;;;5018047;28;40528;-77
2022/03/07 11:32:09;;;;;;;6.10;4.17;;;6.60;99.90;;;;;;5002975;28;40217;-77
2022/03/07 11:34:35;;;;;;;4.97;4.30;;;6.70;99.90;;;;;;5020100;28;37818;-78
2022/03/07 11:37:03;;;;;;;9.23;4.60;;;6.80;99.90;;;;;;5000922;28;37945;-77
2022/03/07 11:39:34;;;;;;;8.03;4.40;;;6.90;99.90;;;;;;5002015;28;39480;-78
2022/03/07 11:42:18;;;;;;;6.23;3.87;;;6.80;99.90;;;;;;5019093;28;38662;-79
2022/03/07 11:44:45;;;;;;;6.10;4.40;;;6.90;99.90;;;;;;5002656;28;49064;-78
2022/03/07 11:47:18;;;;;;;7.13;4.20;;;6.80;99.90;;;;;;5008509;28;37401;-77
2022/03/07 11:49:45;;;;;;;7.35;5.10;;;6.90;99.90;;;;;;5005222;28;38939;-78
2022/03/07 11:52:16;;;;;;;6.27;4.37;;;6.80;99.90;;;;;;5005558;28;38044;-78
2022/03/07 11:54:58;;;;;;;5.50;4.43;;;7.00;99.90;;;;;;5005194;28;38540;-77
2022/03/07 11:58:01;;;;;;;7.77;4.47;;;7.00;99.90;;;;;;5007798;28;36305;-77
2022/03/07 12:00:32;;;;;;;7.38;5.07;;;7.20;99.90;;;;;;5005458;28;48437;-78
2022/03/07 12:03:09;;;;;;;6.70;4.80;;;7.30;99.90;;;;;;5010466;28;39877;-78
2022/03/07 12:05:35;;;;;;;8.07;5.23;;;7.30;99.90;;;;;;5026584;28;46980;-79
2022/03/07 12:08:17;;;;;;;7.43;4.70;;;7.40;99.90;;;;;;5023322;28;37827;-78
2022/03/07 12:11:02;;;;;;;5.17;4.57;;;7.30;99.90;;;;;;5000852;28;48654;-77
2022/03/07 12:13:33;;;;;;;5.37;4.63;;;7.20;99.90;;;;;;5004288;28;48725;-77
2022/03/07 12:16:00;;;;;;;8.77;5.43;;;7.40;99.90;;;;;;5000659;28;39084;-78
2022/03/07 12:18:28;;;;;;;8.87;4.93;;;7.50;99.90;;;;;;5019694;28;37216;-78
2022/03/07 12:20:56;;;;;;;5.83;4.77;;;7.60;99.90;;;;;;5012471;28;38667;-78
2022/03/07 12:23:28;;;;;;;7.70;5.20;;;7.30;99.90;;;;;;5016683;28;37557;-78
2022/03/07 12:26:06;;;;;;;6.53;5.00;;;7.60;99.90;;;;;;5025138;28;38966;-78
2022/03/07 12:28:35;;;;;;;7.00;4.90;;;7.70;99.90;;;;;;5002242;28;47796;-76
2022/03/07 12:31:02;;;;;;;6.80;4.83;;;7.50;99.90;;;;;;5016212;28;37219;-76
2022/03/07 12:33:29;;;;;;;6.07;4.90;;;7.50;99.90;;;;;;5006493;28;48162;-76
2022/03/07 12:36:04;;;;;;;11.00;5.47;;;7.50;99.90;;;;;;5005478;28;38605;-78
2022/03/07 12:38:30;;;;;;;7.37;5.03;;;7.70;99.90;;;;;;5004435;28;48538;-76
2022/03/07 12:41:00;;;;;;;7.17;4.77;;;7.70;99.90;;;;;;5002734;28;38966;-77
2022/03/07 12:43:27;;;;;;;6.43;4.70;;;7.70;99.90;;;;;;5022267;28;39887;-77